Time;durP1;ratioP1;P1;durP2;ratioP2;P2;SDS_P1;SDS_P2;PMS_P1;PMS_P2;Temp;Humidity;BMP_temperature;BMP_pressure;BME280_temperature;BME280_humidity;BME280_pressure;Samples;Min_cycle;Max_cycle;Signal;HPM_P1;HPM_P2
2023/08/08 00:01:22;;;;;;;;;;;;;;;24.60;57.85;100568.41;7393755;19;1228;-42
2023/08/08 00:03:50;;;;;;;;;;;;;;;24.54;57.83;100572.66;7393361;19;1787;-42
2023/08/08 00:06:18;;;;;;;;;;;;;;;24.60;57.50;100576.50;7392885;19;1841;-42
2023/08/08 00:08:47;;;;;;;;;;;;;;;24.57;57.61;100577.72;7394815;19;1367;-41
2023/08/08 00:11:15;;;;;;;;;;;;;;;24.64;57.49;100577.84;7392725;19;1907;-41
2023/08/08 00:13:43;;;;;;;;;;;;;;;24.60;57.04;100574.63;7394990;19;1224;-42
2023/08/08 00:16:14;;;;;;;;;;;;;;;24.57;57.46;100583.13;7395781;19;1489;-41
2023/08/08 00:18:42;;;;;;;;;;;;;;;24.61;57.09;100595.25;7394379;19;1475;-41
2023/08/08 00:21:11;;;;;;;;;;;;;;;24.61;57.30;100595.25;7395041;19;1278;-41
2023/08/08 00:23:39;;;;;;;;;;;;;;;24.47;57.50;100614.91;7393560;19;1258;-41
2023/08/08 00:26:07;;;;;;;;;;;;;;;24.24;58.23;100598.59;7393400;19;1853;-41
2023/08/08 00:28:35;;;;;;;;;;;;;;;24.20;58.30;100581.88;7395156;19;1283;-41
2023/08/08 00:31:04;;;;;;;;;;;;;;;24.32;57.60;100595.03;7393100;19;1842;-42
2023/08/08 00:33:35;;;;;;;;;;;;;;;24.34;57.78;100587.59;7393777;19;1242;-41
2023/08/08 00:36:03;;;;;;;;;;;;;;;24.43;57.25;100608.13;7400572;19;1592;-41
2023/08/08 00:38:31;;;;;;;;;;;;;;;24.35;56.96;100590.13;7401491;19;1294;-41
2023/08/08 00:40:59;;;;;;;;;;;;;;;24.28;57.11;100585.59;7400412;19;1614;-42
2023/08/08 00:43:28;;;;;;;;;;;;;;;24.27;56.52;100597.41;7399802;19;1298;-41
2023/08/08 00:45:56;;;;;;;;;;;;;;;24.29;56.42;100582.72;7398806;19;1973;-41
2023/08/08 00:48:25;;;;;;;;;;;;;;;24.16;57.51;100571.59;7401038;19;1504;-41
2023/08/08 00:50:55;;;;;;;;;;;;;;;24.25;57.26;100561.59;7401324;19;1278;-41
2023/08/08 00:53:26;;;;;;;;;;;;;;;24.28;56.76;100577.47;7398655;19;1558;-41
2023/08/08 00:55:54;;;;;;;;;;;;;;;24.36;56.56;100572.88;7400417;19;1515;-41
2023/08/08 00:58:22;;;;;;;;;;;;;;;24.36;56.46;100577.44;7401126;19;1282;-42
2023/08/08 01:00:52;;;;;;;;;;;;;;;24.22;56.62;100579.84;7399558;19;1429;-41
2023/08/08 01:03:20;;;;;;;;;;;;;;;24.15;56.64;100614.00;7400824;19;1484;-41
2023/08/08 01:05:50;;;;;;;;;;;;;;;24.18;56.50;100592.03;7399445;19;1845;-41
2023/08/08 01:08:25;;;;;;;;;;;;;;;24.09;56.98;100578.72;7401104;19;1397;-41
2023/08/08 01:10:53;;;;;;;;;;;;;;;24.16;56.52;100585.94;7400056;19;1524;-42
2023/08/08 01:13:24;;;;;;;;;;;;;;;24.17;56.59;100595.75;7399834;19;1440;-41
2023/08/08 01:15:52;;;;;;;;;;;;;;;24.07;57.12;100603.19;7399134;19;1297;-41
2023/08/08 01:18:21;;;;;;;;;;;;;;;24.01;56.73;100598.47;7398960;19;1835;-41
2023/08/08 01:20:50;;;;;;;;;;;;;;;24.05;56.30;100613.31;7399990;19;1958;-41
2023/08/08 01:23:21;;;;;;;;;;;;;;;24.12;56.36;100610.78;7400306;19;1263;-41
2023/08/08 01:25:52;;;;;;;;;;;;;;;24.10;56.23;100612.81;7397693;19;1850;-41
2023/08/08 01:28:23;;;;;;;;;;;;;;;24.01;56.49;100625.50;7399798;19;1266;-42
2023/08/08 01:30:52;;;;;;;;;;;;;;;24.13;56.00;100626.84;7399494;19;1297;-42
2023/08/08 01:33:20;;;;;;;;;;;;;;;24.11;56.39;100646.91;7399808;19;1293;-41
2023/08/08 01:35:50;;;;;;;;;;;;;;;24.12;56.55;100644.06;7399200;19;1227;-41
2023/08/08 01:38:22;;;;;;;;;;;;;;;23.97;56.75;100649.31;7399776;19;1490;-41
2023/08/08 01:40:53;;;;;;;;;;;;;;;23.88;56.97;100663.84;7398771;19;1547;-41
2023/08/08 01:43:23;;;;;;;;;;;;;;;23.96;57.06;100654.88;7398729;19;1231;-41
2023/08/08 01:45:51;;;;;;;;;;;;;;;23.99;56.62;100654.53;7395383;19;1841;-42
2023/08/08 01:48:19;;;;;;;;;;;;;;;24.05;56.96;100670.06;7399861;19;1306;-41
2023/08/08 01:50:48;;;;;;;;;;;;;;;23.85;57.06;100669.56;7399665;19;1247;-41
2023/08/08 01:53:16;;;;;;;;;;;;;;;23.82;57.43;100675.31;7397403;19;1539;-41
2023/08/08 01:55:44;;;;;;;;;;;;;;;23.86;57.04;100676.66;7398347;19;1298;-41
2023/08/08 01:58:15;;;;;;;;;;;;;;;23.78;57.47;100700.97;7399707;19;1528;-41
2023/08/08 02:00:44;;;;;;;;;;;;;;;23.65;57.60;100693.34;7396863;19;1417;-41
2023/08/08 02:03:13;;;;;;;;;;;;;;;23.76;57.20;100708.38;7398720;19;1561;-41
2023/08/08 02:05:41;;;;;;;;;;;;;;;23.91;57.02;100697.75;7397430;19;1857;-41
2023/08/08 02:08:09;;;;;;;;;;;;;;;24.08;56.46;100685.94;7398445;19;1560;-42
2023/08/08 02:10:38;;;;;;;;;;;;;;;24.26;56.18;100687.59;7396175;19;1464;-41
2023/08/08 02:13:06;;;;;;;;;;;;;;;24.35;56.10;100681.13;7398586;19;1553;-41
2023/08/08 02:15:37;;;;;;;;;;;;;;;24.46;56.59;100693.47;7398383;19;1437;-41
2023/08/08 02:18:07;;;;;;;;;;;;;;;24.42;56.51;100682.16;7396781;19;1556;-41
2023/08/08 02:20:35;;;;;;;;;;;;;;;24.44;56.21;100693.63;7397812;19;1286;-41
2023/08/08 02:23:03;;;;;;;;;;;;;;;24.38;56.64;100680.81;7397928;19;1612;-41
2023/08/08 02:25:32;;;;;;;;;;;;;;;24.41;56.59;100683.16;7397119;19;1837;-41
2023/08/08 02:28:00;;;;;;;;;;;;;;;24.38;56.22;100670.00;7397930;19;1199;-42
2023/08/08 02:30:29;;;;;;;;;;;;;;;24.48;56.41;100681.44;7397026;19;1496;-41
2023/08/08 02:33:00;;;;;;;;;;;;;;;24.42;56.31;100657.81;7396854;19;1607;-41
2023/08/08 02:35:28;;;;;;;;;;;;;;;24.41;56.07;100667.78;7397587;19;1341;-41
2023/08/08 02:37:56;;;;;;;;;;;;;;;24.40;56.17;100670.66;7397414;19;1497;-42
2023/08/08 02:40:26;;;;;;;;;;;;;;;24.40;55.70;100654.44;7396779;19;1621;-41
2023/08/08 02:42:55;;;;;;;;;;;;;;;24.37;56.14;100674.56;7396386;19;1227;-41
2023/08/08 02:45:23;;;;;;;;;;;;;;;24.40;56.16;100667.97;7397351;19;1841;-42
2023/08/08 02:47:51;;;;;;;;;;;;;;;24.45;55.93;100691.75;7396759;19;1604;-42
2023/08/08 02:50:22;;;;;;;;;;;;;;;24.38;55.61;100680.81;7398947;19;1283;-41
2023/08/08 02:52:51;;;;;;;;;;;;;;;24.48;55.44;100689.56;7395356;19;1416;-42
2023/08/08 02:55:20;;;;;;;;;;;;;;;24.40;55.92;100674.19;7396957;19;1251;-41
2023/08/08 02:57:48;;;;;;;;;;;;;;;24.38;55.47;100670.00;7397059;19;1152;-41
2023/08/08 03:00:17;;;;;;;;;;;;;;;24.39;56.12;100664.41;7397489;19;1526;-41
2023/08/08 03:02:45;;;;;;;;;;;;;;;24.44;55.90;100669.28;7396196;19;1566;-41
2023/08/08 03:05:13;;;;;;;;;;;;;;;24.41;56.00;100678.59;7397316;19;1452;-41
2023/08/08 03:07:44;;;;;;;;;;;;;;;24.45;56.26;100689.06;7394793;19;1832;-42
2023/08/08 03:10:13;;;;;;;;;;;;;;;24.49;55.92;100683.16;7395829;19;1981;-41
2023/08/08 03:12:41;;;;;;;;;;;;;;;24.50;56.00;100700.19;7396624;19;1200;-41
2023/08/08 03:15:10;;;;;;;;;;;;;;;24.47;55.95;100697.84;7397183;19;1559;-41
2023/08/08 03:17:38;;;;;;;;;;;;;;;24.49;56.29;100718.28;7395939;19;1526;-41
2023/08/08 03:20:08;;;;;;;;;;;;;;;24.43;55.98;100705.44;7396971;19;1643;-41
2023/08/08 03:22:36;;;;;;;;;;;;;;;24.36;56.40;100720.69;7396282;19;1449;-42
2023/08/08 03:25:08;;;;;;;;;;;;;;;24.40;56.45;100711.22;7395316;19;1338;-42
2023/08/08 03:27:36;;;;;;;;;;;;;;;24.47;56.21;100717.63;7394813;19;1843;-42
2023/08/08 03:30:04;;;;;;;;;;;;;;;24.44;55.64;100720.66;7395276;19;1965;-41
2023/08/08 03:32:33;;;;;;;;;;;;;;;24.37;56.16;100707.00;7395338;19;1476;-41
2023/08/08 03:35:01;;;;;;;;;;;;;;;24.38;55.59;100713.25;7395681;19;1427;-41
2023/08/08 03:37:32;;;;;;;;;;;;;;;24.31;56.02;100706.81;7393347;19;1274;-41
2023/08/08 03:40:01;;;;;;;;;;;;;;;24.29;56.04;100715.13;7395266;19;1619;-41
2023/08/08 03:42:32;;;;;;;;;;;;;;;24.33;56.20;100729.13;7394703;19;1391;-42
2023/08/08 03:45:00;;;;;;;;;;;;;;;24.33;55.89;100732.69;7395346;19;1456;-41
2023/08/08 03:47:28;;;;;;;;;;;;;;;24.36;55.92;100736.91;7393983;19;1841;-41
2023/08/08 03:49:57;;;;;;;;;;;;;;;24.42;55.61;100747.00;7395800;19;1454;-41
2023/08/08 03:52:26;;;;;;;;;;;;;;;24.34;55.87;100736.22;7395197;19;1381;-42
2023/08/08 03:54:54;;;;;;;;;;;;;;;24.34;55.78;100744.34;7396373;19;1558;-41
2023/08/08 03:57:23;;;;;;;;;;;;;;;24.29;55.71;100747.56;7394844;19;1254;-41
2023/08/08 03:59:53;;;;;;;;;;;;;;;24.29;55.91;100752.97;7394193;19;1465;-42
2023/08/08 04:02:22;;;;;;;;;;;;;;;24.39;55.95;100739.22;7394136;19;1469;-41
2023/08/08 04:04:50;;;;;;;;;;;;;;;24.19;55.71;100739.63;6868096;19;9999872;-42
2023/08/08 04:07:18;;;;;;;;;;;;;;;24.12;55.61;100762.09;7386239;19;1861;-42
2023/08/08 04:09:47;;;;;;;;;;;;;;;24.05;55.96;100751.09;7392170;19;1726;-41
2023/08/08 04:12:15;;;;;;;;;;;;;;;23.92;55.81;100745.38;7396171;19;1483;-41
2023/08/08 04:14:43;;;;;;;;;;;;;;;23.81;56.07;100747.41;7394946;19;1358;-41
2023/08/08 04:17:14;;;;;;;;;;;;;;;23.80;55.94;100764.59;7395273;19;1582;-41
2023/08/08 04:19:43;;;;;;;;;;;;;;;23.87;55.99;100758.53;7394980;19;1854;-41
2023/08/08 04:22:11;;;;;;;;;;;;;;;23.89;55.82;100778.09;7395376;19;1572;-42
2023/08/08 04:24:39;;;;;;;;;;;;;;;23.79;55.85;100779.09;7394796;19;1500;-42
2023/08/08 04:27:07;;;;;;;;;;;;;;;23.90;55.48;100771.72;7395329;19;1858;-42
2023/08/08 04:29:36;;;;;;;;;;;;;;;23.78;55.72;100772.03;7383541;19;1161;-42
2023/08/08 04:32:04;;;;;;;;;;;;;;;23.75;55.75;100772.31;7397948;19;1777;-42
2023/08/08 04:34:35;;;;;;;;;;;;;;;23.75;55.58;100782.28;7398352;19;1456;-42
2023/08/08 04:37:03;;;;;;;;;;;;;;;23.70;55.92;100796.28;7397839;19;1475;-48
2023/08/08 04:39:31;;;;;;;;;;;;;;;23.92;55.24;100796.69;7397027;19;1470;-42
2023/08/08 04:42:00;;;;;;;;;;;;;;;23.93;55.46;100774.06;7397180;19;1725;-51
2023/08/08 04:44:28;;;;;;;;;;;;;;;23.89;55.37;100775.41;7396198;19;1759;-42
2023/08/08 04:46:56;;;;;;;;;;;;;;;23.88;55.49;100790.78;7396161;19;1849;-42
2023/08/08 04:49:25;;;;;;;;;;;;;;;23.84;55.32;100800.22;7397692;19;1529;-42
2023/08/08 04:51:55;;;;;;;;;;;;;;;23.90;55.56;100788.75;7396335;19;1444;-42
2023/08/08 04:54:24;;;;;;;;;;;;;;;23.88;55.60;100784.53;7393348;19;1833;-42
2023/08/08 04:56:52;;;;;;;;;;;;;;;23.90;55.02;100804.13;7395231;19;1440;-42
2023/08/08 04:59:20;;;;;;;;;;;;;;;23.98;55.06;100820.31;7393522;19;1389;-42
2023/08/08 05:01:48;;;;;;;;;;;;;;;23.74;55.41;100818.41;7392615;19;1452;-43
2023/08/08 05:04:17;;;;;;;;;;;;;;;23.70;55.77;100825.16;7333640;19;13753;-42
2023/08/08 05:06:46;;;;;;;;;;;;;;;23.81;55.70;100811.34;7396381;19;1875;-42
2023/08/08 05:09:16;;;;;;;;;;;;;;;24.01;55.29;100819.97;7400613;19;1516;-42
2023/08/08 05:11:45;;;;;;;;;;;;;;;23.91;55.20;100830.09;7397980;19;1639;-42
2023/08/08 05:14:13;;;;;;;;;;;;;;;23.73;55.93;100828.34;7399917;19;1326;-43
2023/08/08 05:16:41;;;;;;;;;;;;;;;23.86;55.39;100827.06;7400813;19;1559;-41
2023/08/08 05:19:09;;;;;;;;;;;;;;;23.87;55.30;100826.03;7399756;19;1547;-42
2023/08/08 05:21:38;;;;;;;;;;;;;;;23.98;54.98;100826.56;7396506;19;1212;-41
2023/08/08 05:24:07;;;;;;;;;;;;;;;24.14;55.11;100847.34;7400216;19;1461;-41
2023/08/08 05:26:38;;;;;;;;;;;;;;;24.22;54.81;100836.53;7397666;19;1846;-42
2023/08/08 05:29:06;;;;;;;;;;;;;;;24.15;55.11;100832.84;7399508;19;1480;-42
2023/08/08 05:31:35;;;;;;;;;;;;;;;24.12;55.07;100830.47;7395758;19;1973;-43
2023/08/08 05:34:03;;;;;;;;;;;;;;;24.13;54.98;100824.06;7399101;19;1238;-41
2023/08/08 05:36:31;;;;;;;;;;;;;;;24.14;54.82;100820.34;7400393;19;1163;-42
2023/08/08 05:39:00;;;;;;;;;;;;;;;24.13;55.07;100845.69;7399975;19;1501;-42
2023/08/08 05:41:28;;;;;;;;;;;;;;;24.07;55.17;100851.72;7400368;19;1547;-42
2023/08/08 05:43:59;;;;;;;;;;;;;;;23.91;55.54;100851.72;7399380;19;2250;-42
2023/08/08 05:46:27;;;;;;;;;;;;;;;24.08;56.07;100858.84;7397814;19;1848;-42
2023/08/08 05:48:55;;;;;;;;;;;;;;;24.07;56.75;100849.03;7397075;19;1510;-42
2023/08/08 05:51:24;;;;;;;;;;;;;;;24.18;55.55;100866.78;7399394;19;1183;-42
2023/08/08 05:53:52;;;;;;;;;;;;;;;24.21;55.54;100861.03;7396247;19;1448;-42
2023/08/08 05:56:20;;;;;;;;;;;;;;;24.18;55.95;100837.91;7397155;19;1682;-42
2023/08/08 05:58:49;;;;;;;;;;;;;;;24.26;56.82;100823.53;7398303;19;1549;-42
2023/08/08 06:01:19;;;;;;;;;;;;;;;24.29;56.87;100849.38;7397702;19;1936;-42
2023/08/08 06:03:48;;;;;;;;;;;;;;;24.35;56.44;100886.53;7398464;19;1663;-41
2023/08/08 06:06:16;;;;;;;;;;;;;;;24.15;56.73;100876.06;7399079;19;1634;-42
2023/08/08 06:08:44;;;;;;;;;;;;;;;24.08;55.95;100872.34;7396568;19;1865;-42
2023/08/08 06:11:13;;;;;;;;;;;;;;;24.06;56.30;100879.75;7395835;19;1667;-42
2023/08/08 06:13:41;;;;;;;;;;;;;;;23.63;55.87;100816.84;7394921;19;1559;-41
2023/08/08 06:16:09;;;;;;;;;;;;;;;24.04;55.98;100894.47;7394602;19;1211;-42
2023/08/08 06:18:40;;;;;;;;;;;;;;;23.94;56.13;100905.41;7394071;19;1559;-42
2023/08/08 06:21:08;;;;;;;;;;;;;;;23.91;56.08;100911.13;7394465;19;1141;-42
2023/08/08 06:23:37;;;;;;;;;;;;;;;23.75;56.35;100896.53;7394200;19;1571;-42
2023/08/08 06:26:05;;;;;;;;;;;;;;;23.68;56.58;100911.69;7393030;19;1484;-41
2023/08/08 06:28:33;;;;;;;;;;;;;;;23.66;56.33;100904.78;7391662;19;1870;-42
2023/08/08 06:31:02;;;;;;;;;;;;;;;23.69;56.36;100901.75;7392324;19;1528;-42
2023/08/08 06:33:30;;;;;;;;;;;;;;;23.82;56.35;100907.56;7391760;19;1481;-44
2023/08/08 06:36:01;;;;;;;;;;;;;;;23.66;56.36;100908.31;7388481;19;1495;-44
2023/08/08 06:38:33;;;;;;;;;;;;;;;23.64;56.46;100934.63;7391797;19;1405;-43
2023/08/08 06:41:01;;;;;;;;;;;;;;;23.71;56.24;100915.94;7393663;19;1567;-44
2023/08/08 06:43:30;;;;;;;;;;;;;;;23.70;56.28;100917.78;7395389;19;1251;-44
2023/08/08 06:45:58;;;;;;;;;;;;;;;23.66;56.05;100902.09;7397128;19;1179;-44
2023/08/08 06:48:27;;;;;;;;;;;;;;;23.40;56.84;100909.22;7396565;19;1848;-43
2023/08/08 06:50:55;;;;;;;;;;;;;;;23.27;57.09;100910.66;7397262;19;1270;-43
2023/08/08 06:53:26;;;;;;;;;;;;;;;23.50;56.85;100897.47;7395454;19;1548;-43
2023/08/08 06:55:54;;;;;;;;;;;;;;;23.46;56.92;100901.47;7395417;19;1325;-43
2023/08/08 06:58:23;;;;;;;;;;;;;;;23.49;56.64;100910.09;7396136;19;1191;-44
2023/08/08 07:00:52;;;;;;;;;;;;;;;23.62;56.85;100910.50;7397384;19;1496;-43
2023/08/08 07:03:21;;;;;;;;;;;;;;;23.58;56.77;100921.78;7397464;19;1623;-43
2023/08/08 07:05:51;;;;;;;;;;;;;;;23.55;56.83;100916.69;7397337;19;1614;-43
2023/08/08 07:08:20;;;;;;;;;;;;;;;23.47;57.13;100885.13;7395716;19;1841;-43
2023/08/08 07:10:50;;;;;;;;;;;;;;;23.43;56.82;100892.69;7396921;19;1325;-43
2023/08/08 07:13:19;;;;;;;;;;;;;;;23.47;57.17;100889.69;7395882;19;1175;-43
2023/08/08 07:15:47;;;;;;;;;;;;;;;23.48;57.13;100888.69;7397260;19;1563;-43
2023/08/08 07:18:15;;;;;;;;;;;;;;;23.63;56.78;100881.63;7396085;19;1969;-43
2023/08/08 07:20:43;;;;;;;;;;;;;;;23.78;56.56;100879.19;7397499;19;1277;-43
2023/08/08 07:23:12;;;;;;;;;;;;;;;23.66;56.79;100897.53;7396644;19;1258;-43
2023/08/08 07:25:40;;;;;;;;;;;;;;;23.76;56.77;100898.22;7396630;19;1290;-43
2023/08/08 07:28:11;;;;;;;;;;;;;;;23.67;56.85;100917.25;7395128;19;1848;-43
2023/08/08 07:30:40;;;;;;;;;;;;;;;23.63;56.81;100912.19;7395112;19;1949;-43
2023/08/08 07:33:08;;;;;;;;;;;;;;;23.61;57.22;100925.00;7396230;19;1496;-43
2023/08/08 07:35:36;;;;;;;;;;;;;;;23.75;57.09;100928.94;7395287;19;1472;-43
2023/08/08 07:38:05;;;;;;;;;;;;;;;23.79;56.82;100916.81;7394418;19;1551;-43
2023/08/08 07:40:33;;;;;;;;;;;;;;;23.77;57.03;100910.72;7395988;19;1535;-43
2023/08/08 07:43:02;;;;;;;;;;;;;;;23.71;57.05;100916.75;7394319;19;1618;-43
2023/08/08 07:45:32;;;;;;;;;;;;;;;23.73;57.51;100928.25;7393655;19;1563;-43
2023/08/08 07:48:01;;;;;;;;;;;;;;;23.80;57.18;100909.59;7394138;19;1872;-43
2023/08/08 07:50:29;;;;;;;;;;;;;;;23.79;57.72;100906.00;7395441;19;1204;-43
2023/08/08 07:52:57;;;;;;;;;;;;;;;23.79;57.54;100918.69;7393931;19;1573;-43
2023/08/08 07:55:26;;;;;;;;;;;;;;;23.78;57.49;100917.84;7394241;19;1952;-43
2023/08/08 07:57:54;;;;;;;;;;;;;;;23.71;57.61;100911.34;7395423;19;1547;-47
2023/08/08 08:00:23;;;;;;;;;;;;;;;23.71;57.01;100911.34;7395884;19;1175;-47
2023/08/08 08:02:54;;;;;;;;;;;;;;;23.69;57.08;100913.38;7395667;19;1583;-45
2023/08/08 08:05:22;;;;;;;;;;;;;;;23.78;57.27;100923.25;7393330;19;1484;-42
2023/08/08 08:07:50;;;;;;;;;;;;;;;23.72;57.10;100918.47;7392964;19;1861;-42
2023/08/08 08:10:19;;;;;;;;;;;;;;;23.92;56.75;100923.63;7394193;19;1517;-42
2023/08/08 08:12:47;;;;;;;;;;;;;;;23.91;57.21;100921.94;7395369;19;1533;-42
2023/08/08 08:15:15;;;;;;;;;;;;;;;23.90;57.28;100910.28;7394603;19;1499;-42
2023/08/08 08:17:44;;;;;;;;;;;;;;;23.86;57.11;100905.38;7394878;19;1629;-42
2023/08/08 08:20:15;;;;;;;;;;;;;;;23.52;57.86;100917.03;7394854;19;1444;-42
2023/08/08 08:22:43;;;;;;;;;;;;;;;23.39;57.53;100890.47;7393711;19;1501;-42
2023/08/08 08:25:11;;;;;;;;;;;;;;;23.30;58.05;100897.72;7396032;19;1133;-42
2023/08/08 08:27:40;;;;;;;;;;;;;;;23.19;58.03;100887.19;7393785;19;1857;-42
2023/08/08 08:30:09;;;;;;;;;;;;;;;23.25;57.56;100891.09;7394442;19;1678;-42
2023/08/08 08:32:38;;;;;;;;;;;;;;;23.35;57.55;100900.75;7395166;19;1603;-42
2023/08/08 08:35:07;;;;;;;;;;;;;;;23.40;58.41;100913.78;7395718;19;1246;-42
2023/08/08 08:37:38;;;;;;;;;;;;;;;23.50;58.48;100898.31;7392298;19;1528;-42
2023/08/08 08:40:07;;;;;;;;;;;;;;;23.46;59.36;100896.94;7393748;19;1639;-42
2023/08/08 08:42:36;;;;;;;;;;;;;;;23.51;58.92;100926.13;7393699;19;1471;-42
2023/08/08 08:45:05;;;;;;;;;;;;;;;23.55;58.88;100889.72;7392624;19;1429;-42
2023/08/08 08:47:35;;;;;;;;;;;;;;;23.56;58.20;100886.00;7393728;19;1854;-42
2023/08/08 08:50:04;;;;;;;;;;;;;;;23.65;57.62;100903.91;7392948;19;1457;-42
2023/08/08 08:52:33;;;;;;;;;;;;;;;24.06;57.12;100909.47;7393745;19;1386;-42
2023/08/08 08:55:04;;;;;;;;;;;;;;;24.38;56.97;100894.31;7394945;19;1533;-42
2023/08/08 08:57:32;;;;;;;;;;;;;;;24.58;56.47;100909.22;7398450;19;1313;-42
2023/08/08 09:00:01;;;;;;;;;;;;;;;24.63;57.48;100879.00;7401669;19;1569;-42
2023/08/08 09:02:29;;;;;;;;;;;;;;;24.71;57.11;100880.81;7399732;19;1232;-42
2023/08/08 09:04:58;;;;;;;;;;;;;;;24.77;56.93;100897.22;7400620;19;1480;-41
2023/08/08 09:07:28;;;;;;;;;;;;;;;24.92;56.77;100883.84;7399550;19;1516;-41
2023/08/08 09:09:57;;;;;;;;;;;;;;;25.05;56.29;100913.09;7398809;19;1445;-42
2023/08/08 09:12:27;;;;;;;;;;;;;;;24.88;57.42;100887.06;7398190;19;1535;-42
2023/08/08 09:14:57;;;;;;;;;;;;;;;25.07;57.34;100880.41;7398928;19;1077;-42
2023/08/08 09:17:27;;;;;;;;;;;;;;;25.17;57.26;100878.38;7394571;19;1671;-41
2023/08/08 09:19:55;;;;;;;;;;;;;;;25.11;57.43;100874.50;7400166;19;1812;-42
2023/08/08 09:22:24;;;;;;;;;;;;;;;25.06;58.27;100878.75;7397451;19;1224;-42
2023/08/08 09:24:52;;;;;;;;;;;;;;;25.06;57.72;100873.34;7400436;19;1463;-42
2023/08/08 09:27:20;;;;;;;;;;;;;;;25.19;57.12;100876.34;7399023;19;1262;-41
2023/08/08 09:29:52;;;;;;;;;;;;;;;25.20;57.60;100876.16;7397832;19;1839;-42
2023/08/08 09:32:20;;;;;;;;;;;;;;;25.23;57.22;100869.59;7400269;19;1638;-42
2023/08/08 09:34:48;;;;;;;;;;;;;;;25.15;57.54;100873.13;7400748;19;1539;-41
2023/08/08 09:37:17;;;;;;;;;;;;;;;25.27;57.77;100881.75;7399589;19;1224;-42
2023/08/08 09:39:45;;;;;;;;;;;;;;;25.23;57.65;100875.00;7395879;19;1488;-42
2023/08/08 09:42:13;;;;;;;;;;;;;;;24.69;55.74;100872.03;7399973;19;1655;-42
2023/08/08 09:44:41;;;;;;;;;;;;;;;24.89;55.67;100878.78;7400853;19;1045;-42
2023/08/08 09:47:14;;;;;;;;;;;;;;;24.88;56.00;100887.06;7400168;19;1041;-42
2023/08/08 09:49:43;;;;;;;;;;;;;;;24.78;55.53;100862.91;7398977;19;1837;-42
2023/08/08 09:52:12;;;;;;;;;;;;;;;24.69;54.65;100863.91;7399524;19;1698;-42
2023/08/08 09:54:41;;;;;;;;;;;;;;;24.63;55.01;100873.59;7398617;19;1599;-42
2023/08/08 09:57:10;;;;;;;;;;;;;;;24.75;55.02;100898.38;7400813;19;1173;-42
2023/08/08 09:59:39;;;;;;;;;;;;;;;24.81;55.31;100873.41;7399791;19;1944;-42
2023/08/08 10:02:07;;;;;;;;;;;;;;;24.77;54.35;100880.13;7399093;19;1940;-42
2023/08/08 10:04:38;;;;;;;;;;;;;;;24.70;54.84;100881.84;7399853;19;1379;-42
2023/08/08 10:07:07;;;;;;;;;;;;;;;24.72;54.97;100872.53;7397737;19;1600;-41
2023/08/08 10:09:37;;;;;;;;;;;;;;;24.68;55.10;100883.88;7397103;19;1842;-42
2023/08/08 10:12:06;;;;;;;;;;;;;;;24.67;55.04;100880.34;7399228;19;1565;-42
2023/08/08 10:14:35;;;;;;;;;;;;;;;24.68;55.01;100886.59;7399555;19;1559;-42
2023/08/08 10:17:05;;;;;;;;;;;;;;;24.65;53.93;100878.81;7396132;19;1257;-41
2023/08/08 10:19:33;;;;;;;;;;;;;;;24.73;54.41;100862.56;7397435;19;1539;-42
2023/08/08 10:22:06;;;;;;;;;;;;;;;24.66;54.03;100870.53;7398632;19;1489;-42
2023/08/08 10:24:36;;;;;;;;;;;;;;;24.64;52.95;100867.16;7399611;19;1262;-42
2023/08/08 10:27:04;;;;;;;;;;;;;;;24.76;52.25;100876.59;7398127;19;1539;-41
2023/08/08 10:29:34;;;;;;;;;;;;;;;24.71;53.30;100864.59;7397027;19;1852;-41
2023/08/08 10:32:04;;;;;;;;;;;;;;;24.77;52.22;100853.97;7397577;19;1850;-42
2023/08/08 10:34:42;;;;;;;;;;;;;;;24.72;54.45;100866.31;7398882;19;1568;-42
2023/08/08 10:37:15;;;;;;;;;;;;;;;24.77;53.82;100866.59;7398638;19;1592;-42
2023/08/08 10:39:53;;;;;;;;;;;;;;;24.75;53.88;100852.41;7398613;19;1608;-42
2023/08/08 10:42:22;;;;;;;;;;;;;;;24.72;53.54;100882.53;7397684;19;1553;-49
2023/08/08 10:44:54;;;;;;;;;;;;;;;24.75;53.92;100863.22;7397677;19;1628;-42
2023/08/08 10:47:24;;;;;;;;;;;;;;;24.68;53.69;100859.53;7398845;19;1632;-42
2023/08/08 10:49:59;;;;;;;;;;;;;;;24.74;53.41;100848.03;7397704;19;1900;-42
2023/08/08 10:52:30;;;;;;;;;;;;;;;24.75;52.53;100864.09;7395649;19;1688;-42
2023/08/08 10:54:59;;;;;;;;;;;;;;;24.76;52.86;100837.91;7396107;19;1601;-42
2023/08/08 10:57:27;;;;;;;;;;;;;;;24.79;53.25;100856.50;7397553;19;1332;-43
2023/08/08 10:59:56;;;;;;;;;;;;;;;24.75;52.54;100850.59;7396379;19;1465;-42
2023/08/08 11:02:24;;;;;;;;;;;;;;;24.78;53.24;100843.97;7397382;19;1454;-42
2023/08/08 11:04:53;;;;;;;;;;;;;;;24.83;52.94;100836.19;7396728;19;1528;-41
2023/08/08 11:07:21;;;;;;;;;;;;;;;24.88;53.29;100841.09;7396360;19;1358;-42
2023/08/08 11:09:52;;;;;;;;;;;;;;;24.84;53.07;100843.28;7395128;19;1851;-42
2023/08/08 11:12:20;;;;;;;;;;;;;;;24.80;53.83;100841.94;7396430;19;1382;-42
2023/08/08 11:14:48;;;;;;;;;;;;;;;24.82;53.74;100845.31;7397428;19;1351;-42
2023/08/08 11:17:17;;;;;;;;;;;;;;;24.84;51.98;100840.56;7396987;19;1469;-42
2023/08/08 11:19:45;;;;;;;;;;;;;;;24.91;52.13;100838.88;7393520;19;1662;-42
2023/08/08 11:22:14;;;;;;;;;;;;;;;24.94;52.50;100865.56;7396576;19;1708;-42
2023/08/08 11:24:42;;;;;;;;;;;;;;;25.02;51.37;100846.59;7396706;19;1456;-42
2023/08/08 11:27:14;;;;;;;;;;;;;;;24.93;50.81;100844.97;7397266;19;1623;-42
2023/08/08 11:29:43;;;;;;;;;;;;;;;24.97;51.13;100843.59;7394300;19;1858;-42
2023/08/08 11:32:11;;;;;;;;;;;;;;;25.11;50.75;100833.91;7395076;19;1818;-42
2023/08/08 11:34:40;;;;;;;;;;;;;;;24.92;51.46;100835.16;7396235;19;1415;-42
2023/08/08 11:37:10;;;;;;;;;;;;;;;24.90;51.71;100850.72;7396309;19;1699;-42
2023/08/08 11:39:39;;;;;;;;;;;;;;;24.95;50.38;100842.09;7395384;19;1406;-42
2023/08/08 11:42:08;;;;;;;;;;;;;;;24.97;50.42;100837.34;7395984;19;1818;-42
2023/08/08 11:44:39;;;;;;;;;;;;;;;25.09;49.99;100848.63;7394514;19;1482;-42
2023/08/08 11:47:07;;;;;;;;;;;;;;;25.00;50.11;100837.81;7394875;19;1560;-42
2023/08/08 11:49:42;;;;;;;;;;;;;;;24.98;49.88;100830.91;7393547;19;1840;-41
2023/08/08 11:52:10;;;;;;;;;;;;;;;25.05;47.63;100840.03;7396581;19;1353;-42
2023/08/08 11:54:53;;;;;;;;;;;;;;;25.08;46.57;100841.53;7344592;19;10000496;-42
2023/08/08 11:57:21;;;;;;;;;;;;;;;25.00;48.50;100848.66;7381632;19;2179;-43
2023/08/08 11:59:55;;;;;;;;;;;;;;;24.95;50.27;100817.75;7388983;19;1204;-42
2023/08/08 12:02:24;;;;;;;;;;;;;;;25.00;50.88;100824.28;7388528;19;1483;-42
2023/08/08 12:04:53;;;;;;;;;;;;;;;24.99;51.12;100830.75;7387252;19;1373;-42
2023/08/08 12:07:21;;;;;;;;;;;;;;;24.98;50.41;100834.44;7388488;19;1539;-42
2023/08/08 12:09:51;;;;;;;;;;;;;;;24.98;50.78;100811.97;7384950;19;1857;-42
2023/08/08 12:12:22;;;;;;;;;;;;;;;24.99;50.88;100819.09;7387095;19;1552;-42
2023/08/08 12:14:53;;;;;;;;;;;;;;;24.97;51.36;100808.44;7387900;19;1452;-42
2023/08/08 12:17:21;;;;;;;;;;;;;;;25.04;51.01;100815.84;7388080;19;1377;-42
2023/08/08 12:19:50;;;;;;;;;;;;;;;25.02;51.46;100819.56;7387530;19;1498;-42
2023/08/08 12:22:18;;;;;;;;;;;;;;;25.06;51.56;100817.34;7386528;19;1377;-42
2023/08/08 12:24:46;;;;;;;;;;;;;;;25.08;51.81;100826.13;7388210;19;1389;-42
2023/08/08 12:27:16;;;;;;;;;;;;;;;25.10;52.07;100820.56;7388032;19;1411;-41
2023/08/08 12:29:44;;;;;;;;;;;;;;;25.04;52.01;100799.59;7385906;19;1834;-42
2023/08/08 12:32:15;;;;;;;;;;;;;;;25.05;51.92;100799.44;7394582;19;1421;-42
2023/08/08 12:34:43;;;;;;;;;;;;;;;25.05;52.17;100802.16;7395822;19;1392;-42
2023/08/08 12:37:11;;;;;;;;;;;;;;;25.09;52.39;100798.06;7395503;19;1454;-42
2023/08/08 12:39:40;;;;;;;;;;;;;;;25.07;52.60;100793.84;7395537;19;2024;-42
2023/08/08 12:42:08;;;;;;;;;;;;;;;25.06;52.40;100797.56;7400876;19;1544;-42
2023/08/08 12:44:36;;;;;;;;;;;;;;;25.08;52.42;100807.19;7400291;19;1227;-42
2023/08/08 12:47:05;;;;;;;;;;;;;;;25.04;52.21;100795.03;7401992;19;1219;-42
2023/08/08 12:49:36;;;;;;;;;;;;;;;25.05;52.22;100787.75;7400764;19;1863;-42
2023/08/08 12:52:04;;;;;;;;;;;;;;;25.06;52.28;100781.34;7401635;19;1596;-42
2023/08/08 12:54:32;;;;;;;;;;;;;;;25.09;52.04;100775.56;7400398;19;1098;-42